Forside
METAR-TAF:

METAR-TAF

Lufthavne :

Jönköping Airport

Jönköping, Sverige

Breddekreds: 57-46N, længdekreds: 014-05E, højde: 226 m

Aktuelle vejr

Denne rapport blev lavet for 26 minutter siden, kl. 21:50 UTC
Vind 5 kt fra nordøst
Temperatur 0°C
Fugtighed 86%
Tryk 1009 hPa
Sigt 10 km eller mere

METAR: ESGJ 192150Z AUTO 04005KT 9999 OVC034/// 00/M02 Q1009

Tid: 00:16 (22:16 UTC)

Vejrudsigter

Denne rapport blev lavet for 10 timer og 46 minutter siden, kl. 11:30 UTC
Foreløbig gælder fra 19 på 12 UTC til 19 på 14 UTC
Vind 9 kt fra østnordøst
Sigt 10 km eller mere
Spredte skyer i en højde af 600 ft
Brudte skyer i en højde af 1500 ft
Midlertidig
fra 19 på 12 UTC til 19 på 13 UTC
Sigt: 3500 m
Brudte skyer i en højde af 1200 ft
let sne, regn,

TAF: ESGJ 191130Z 1912/1914 07009KT 9999 SCT006 BKN015 TEMPO 1912/1913 3500 -SNRA BKN012

Vejrobservationer og prognoser fra mere end 4000 lufthavne (METAR og TAF).

De gule og røde prikker repræsenterer de meteorologiske stationer.

Flyt musen over at se navnet på stationen.

Så klik over at se vejr observationer og prognoser.

At skifte det kort: Klik på de grønne knapper med et sort kors for at zoome ind; på den grønne knap med en bindestreg for at zoome ud; eller på de grønne pile for tilstødende kort.


METAR-TAF: